sensor_id;sensor_type;location;lat;lon;timestamp;temperature;humidity
71837;DHT22;59686;51.716;7.016;2023-01-29T00:01:56;5.80;71.90
71837;DHT22;59686;51.716;7.016;2023-01-29T00:04:22;5.80;71.70
71837;DHT22;59686;51.716;7.016;2023-01-29T00:06:48;5.80;71.80
71837;DHT22;59686;51.716;7.016;2023-01-29T00:09:14;5.80;71.80
71837;DHT22;59686;51.716;7.016;2023-01-29T00:12:14;5.80;71.70
71837;DHT22;59686;51.716;7.016;2023-01-29T00:14:40;5.80;71.80
71837;DHT22;59686;51.716;7.016;2023-01-29T00:17:06;5.70;71.80
71837;DHT22;59686;51.716;7.016;2023-01-29T00:19:31;5.80;71.80
71837;DHT22;59686;51.716;7.016;2023-01-29T00:21:57;5.70;71.80
71837;DHT22;59686;51.716;7.016;2023-01-29T00:24:23;5.90;71.80
71837;DHT22;59686;51.716;7.016;2023-01-29T00:26:48;5.80;71.70
71837;DHT22;59686;51.716;7.016;2023-01-29T00:29:14;5.70;71.60
71837;DHT22;59686;51.716;7.016;2023-01-29T00:31:43;5.70;71.70
71837;DHT22;59686;51.716;7.016;2023-01-29T00:34:09;5.70;71.60
71837;DHT22;59686;51.716;7.016;2023-01-29T00:36:41;5.70;71.70
71837;DHT22;59686;51.716;7.016;2023-01-29T00:39:09;5.70;71.70
71837;DHT22;59686;51.716;7.016;2023-01-29T00:41:36;5.70;71.70
71837;DHT22;59686;51.716;7.016;2023-01-29T00:44:20;5.70;71.70
71837;DHT22;59686;51.716;7.016;2023-01-29T00:47:05;5.70;71.80
71837;DHT22;59686;51.716;7.016;2023-01-29T00:49:55;5.70;71.80
71837;DHT22;59686;51.716;7.016;2023-01-29T00:52:21;5.70;71.80
71837;DHT22;59686;51.716;7.016;2023-01-29T00:54:51;5.60;71.70
71837;DHT22;59686;51.716;7.016;2023-01-29T00:57:17;5.70;71.90
71837;DHT22;59686;51.716;7.016;2023-01-29T00:59:43;5.80;71.80
71837;DHT22;59686;51.716;7.016;2023-01-29T01:02:08;5.70;71.70
71837;DHT22;59686;51.716;7.016;2023-01-29T01:04:52;5.70;71.80
71837;DHT22;59686;51.716;7.016;2023-01-29T01:07:18;5.70;71.80
71837;DHT22;59686;51.716;7.016;2023-01-29T01:09:44;5.70;71.90
71837;DHT22;59686;51.716;7.016;2023-01-29T01:12:30;5.70;71.90
71837;DHT22;59686;51.716;7.016;2023-01-29T01:14:56;5.70;71.90
71837;DHT22;59686;51.716;7.016;2023-01-29T01:17:22;5.70;71.80
71837;DHT22;59686;51.716;7.016;2023-01-29T01:19:47;5.70;71.90
71837;DHT22;59686;51.716;7.016;2023-01-29T01:22:13;5.70;71.90
71837;DHT22;59686;51.716;7.016;2023-01-29T01:24:39;5.70;71.90
71837;DHT22;59686;51.716;7.016;2023-01-29T01:27:05;5.70;72.00
71837;DHT22;59686;51.716;7.016;2023-01-29T01:29:31;5.70;72.00
71837;DHT22;59686;51.716;7.016;2023-01-29T01:31:56;5.70;72.80
71837;DHT22;59686;51.716;7.016;2023-01-29T01:34:27;5.70;72.00
71837;DHT22;59686;51.716;7.016;2023-01-29T01:36:53;5.70;72.10
71837;DHT22;59686;51.716;7.016;2023-01-29T01:39:23;5.60;72.10
71837;DHT22;59686;51.716;7.016;2023-01-29T01:41:57;5.60;72.00
71837;DHT22;59686;51.716;7.016;2023-01-29T01:50:02;5.60;72.10
71837;DHT22;59686;51.716;7.016;2023-01-29T01:52:32;5.60;72.10
71837;DHT22;59686;51.716;7.016;2023-01-29T01:55:01;5.60;72.00
71837;DHT22;59686;51.716;7.016;2023-01-29T01:57:27;5.60;72.00
71837;DHT22;59686;51.716;7.016;2023-01-29T01:59:58;5.60;72.00
71837;DHT22;59686;51.716;7.016;2023-01-29T02:02:26;5.60;72.10
71837;DHT22;59686;51.716;7.016;2023-01-29T02:05:11;5.60;72.10
71837;DHT22;59686;51.716;7.016;2023-01-29T02:07:56;5.60;72.10
71837;DHT22;59686;51.716;7.016;2023-01-29T02:10:45;5.60;72.10
71837;DHT22;59686;51.716;7.016;2023-01-29T02:13:15;5.60;72.10
71837;DHT22;59686;51.716;7.016;2023-01-29T02:15:41;5.60;72.10
71837;DHT22;59686;51.716;7.016;2023-01-29T02:18:12;5.50;71.90
71837;DHT22;59686;51.716;7.016;2023-01-29T02:20:42;5.60;72.80
71837;DHT22;59686;51.716;7.016;2023-01-29T02:23:46;5.60;72.00
71837;DHT22;59686;51.716;7.016;2023-01-29T02:26:28;5.60;72.10
71837;DHT22;59686;51.716;7.016;2023-01-29T02:34:50;5.50;72.00
71837;DHT22;59686;51.716;7.016;2023-01-29T02:37:57;5.50;72.10
71837;DHT22;59686;51.716;7.016;2023-01-29T02:46:16;5.50;72.00
71837;DHT22;59686;51.716;7.016;2023-01-29T02:54:20;5.50;72.10
71837;DHT22;59686;51.716;7.016;2023-01-29T02:57:00;5.50;72.00
71837;DHT22;59686;51.716;7.016;2023-01-29T02:59:36;5.50;72.00
71837;DHT22;59686;51.716;7.016;2023-01-29T03:02:14;5.50;72.10
71837;DHT22;59686;51.716;7.016;2023-01-29T03:04:47;5.50;72.20
71837;DHT22;59686;51.716;7.016;2023-01-29T03:07:36;5.50;72.10
71837;DHT22;59686;51.716;7.016;2023-01-29T03:13:25;5.50;72.10
71837;DHT22;59686;51.716;7.016;2023-01-29T03:16:04;5.50;72.10
71837;DHT22;59686;51.716;7.016;2023-01-29T03:18:36;5.50;72.20
71837;DHT22;59686;51.716;7.016;2023-01-29T03:21:13;5.50;72.30
71837;DHT22;59686;51.716;7.016;2023-01-29T03:23:59;5.50;72.20
71837;DHT22;59686;51.716;7.016;2023-01-29T03:26:43;5.50;73.10
71837;DHT22;59686;51.716;7.016;2023-01-29T03:29:31;5.40;72.30
71837;DHT22;59686;51.716;7.016;2023-01-29T03:32:17;5.40;72.30
71837;DHT22;59686;51.716;7.016;2023-01-29T03:34:51;5.40;72.30
71837;DHT22;59686;51.716;7.016;2023-01-29T03:37:41;5.40;72.30
71837;DHT22;59686;51.716;7.016;2023-01-29T03:40:08;5.40;72.30
71837;DHT22;59686;51.716;7.016;2023-01-29T03:42:43;5.50;72.30
71837;DHT22;59686;51.716;7.016;2023-01-29T03:45:18;5.40;72.30
71837;DHT22;59686;51.716;7.016;2023-01-29T03:53:36;5.40;72.40
71837;DHT22;59686;51.716;7.016;2023-01-29T03:59:25;5.40;72.60
71837;DHT22;59686;51.716;7.016;2023-01-29T04:01:58;5.40;72.40
71837;DHT22;59686;51.716;7.016;2023-01-29T04:04:36;5.40;72.40
71837;DHT22;59686;51.716;7.016;2023-01-29T04:07:10;5.40;72.50
71837;DHT22;59686;51.716;7.016;2023-01-29T04:09:46;5.40;72.50
71837;DHT22;59686;51.716;7.016;2023-01-29T04:12:18;5.40;72.50
71837;DHT22;59686;51.716;7.016;2023-01-29T04:14:46;5.40;72.50
71837;DHT22;59686;51.716;7.016;2023-01-29T04:17:39;5.40;72.50
71837;DHT22;59686;51.716;7.016;2023-01-29T04:20:06;5.40;72.60
71837;DHT22;59686;51.716;7.016;2023-01-29T04:22:37;5.40;72.70
71837;DHT22;59686;51.716;7.016;2023-01-29T04:25:09;5.40;72.70
71837;DHT22;59686;51.716;7.016;2023-01-29T04:28:03;5.40;72.60
71837;DHT22;59686;51.716;7.016;2023-01-29T04:30:58;5.40;72.60
71837;DHT22;59686;51.716;7.016;2023-01-29T04:36:52;5.40;72.80
71837;DHT22;59686;51.716;7.016;2023-01-29T04:48:25;5.40;72.70
71837;DHT22;59686;51.716;7.016;2023-01-29T04:51:11;5.40;72.80
71837;DHT22;59686;51.716;7.016;2023-01-29T04:53:56;5.40;72.80
71837;DHT22;59686;51.716;7.016;2023-01-29T04:56:35;5.40;72.80
71837;DHT22;59686;51.716;7.016;2023-01-29T04:59:08;5.40;72.90
71837;DHT22;59686;51.716;7.016;2023-01-29T05:01:34;5.40;72.80
71837;DHT22;59686;51.716;7.016;2023-01-29T05:04:06;5.40;72.90
71837;DHT22;59686;51.716;7.016;2023-01-29T05:06:34;5.40;72.90
71837;DHT22;59686;51.716;7.016;2023-01-29T05:09:02;5.40;72.80
71837;DHT22;59686;51.716;7.016;2023-01-29T05:11:30;5.40;72.90
71837;DHT22;59686;51.716;7.016;2023-01-29T05:13:57;5.40;72.80
71837;DHT22;59686;51.716;7.016;2023-01-29T05:16:34;5.40;72.90
71837;DHT22;59686;51.716;7.016;2023-01-29T05:19:10;5.40;72.80
71837;DHT22;59686;51.716;7.016;2023-01-29T05:22:08;5.40;72.90
71837;DHT22;59686;51.716;7.016;2023-01-29T05:24:36;5.30;72.90
71837;DHT22;59686;51.716;7.016;2023-01-29T05:27:03;5.40;72.90
71837;DHT22;59686;51.716;7.016;2023-01-29T05:29:47;5.30;72.80
71837;DHT22;59686;51.716;7.016;2023-01-29T05:32:14;5.30;72.80
71837;DHT22;59686;51.716;7.016;2023-01-29T05:34:40;5.30;72.70
71837;DHT22;59686;51.716;7.016;2023-01-29T05:37:16;5.30;72.80
71837;DHT22;59686;51.716;7.016;2023-01-29T05:39:41;5.30;72.80
71837;DHT22;59686;51.716;7.016;2023-01-29T05:42:07;5.30;72.60
71837;DHT22;59686;51.716;7.016;2023-01-29T05:44:33;5.30;72.70
71837;DHT22;59686;51.716;7.016;2023-01-29T05:46:58;5.30;72.80
71837;DHT22;59686;51.716;7.016;2023-01-29T05:49:27;5.30;72.80
71837;DHT22;59686;51.716;7.016;2023-01-29T05:51:52;5.30;72.80
71837;DHT22;59686;51.716;7.016;2023-01-29T05:54:18;5.30;72.90
71837;DHT22;59686;51.716;7.016;2023-01-29T05:56:44;5.30;72.90
71837;DHT22;59686;51.716;7.016;2023-01-29T05:59:09;5.30;72.90
71837;DHT22;59686;51.716;7.016;2023-01-29T06:01:35;5.30;72.90
71837;DHT22;59686;51.716;7.016;2023-01-29T06:04:01;5.30;73.00
71837;DHT22;59686;51.716;7.016;2023-01-29T06:06:27;5.30;73.00
71837;DHT22;59686;51.716;7.016;2023-01-29T06:08:53;5.30;73.00
71837;DHT22;59686;51.716;7.016;2023-01-29T06:11:18;5.30;73.00
71837;DHT22;59686;51.716;7.016;2023-01-29T06:13:45;5.30;73.10
71837;DHT22;59686;51.716;7.016;2023-01-29T06:16:11;5.40;73.20
71837;DHT22;59686;51.716;7.016;2023-01-29T06:18:37;5.30;73.20
71837;DHT22;59686;51.716;7.016;2023-01-29T06:21:05;5.30;73.20
71837;DHT22;59686;51.716;7.016;2023-01-29T06:23:31;5.30;73.20
71837;DHT22;59686;51.716;7.016;2023-01-29T06:26:04;5.30;73.20
71837;DHT22;59686;51.716;7.016;2023-01-29T06:28:30;5.30;73.20
71837;DHT22;59686;51.716;7.016;2023-01-29T06:31:06;5.30;73.20
71837;DHT22;59686;51.716;7.016;2023-01-29T06:33:32;5.30;73.20
71837;DHT22;59686;51.716;7.016;2023-01-29T06:36:00;5.30;73.20
71837;DHT22;59686;51.716;7.016;2023-01-29T06:38:27;5.30;73.30
71837;DHT22;59686;51.716;7.016;2023-01-29T06:40:54;5.30;73.40
71837;DHT22;59686;51.716;7.016;2023-01-29T06:43:22;5.30;73.40
71837;DHT22;59686;51.716;7.016;2023-01-29T06:45:50;5.30;73.40
71837;DHT22;59686;51.716;7.016;2023-01-29T06:48:16;5.30;73.40
71837;DHT22;59686;51.716;7.016;2023-01-29T06:50:42;5.30;73.40
71837;DHT22;59686;51.716;7.016;2023-01-29T06:53:08;5.30;73.40
71837;DHT22;59686;51.716;7.016;2023-01-29T06:55:34;5.30;73.40
71837;DHT22;59686;51.716;7.016;2023-01-29T06:58:18;5.30;73.40
71837;DHT22;59686;51.716;7.016;2023-01-29T07:00:44;5.30;73.40
71837;DHT22;59686;51.716;7.016;2023-01-29T07:03:10;5.30;73.40
71837;DHT22;59686;51.716;7.016;2023-01-29T07:05:36;5.20;73.40
71837;DHT22;59686;51.716;7.016;2023-01-29T07:08:02;5.30;73.50
71837;DHT22;59686;51.716;7.016;2023-01-29T07:10:27;5.30;73.50
71837;DHT22;59686;51.716;7.016;2023-01-29T07:12:53;5.30;73.60
71837;DHT22;59686;51.716;7.016;2023-01-29T07:15:19;5.30;73.60
71837;DHT22;59686;51.716;7.016;2023-01-29T07:18:04;5.30;73.60
71837;DHT22;59686;51.716;7.016;2023-01-29T07:20:39;5.20;73.60
71837;DHT22;59686;51.716;7.016;2023-01-29T07:23:04;5.30;73.60
71837;DHT22;59686;51.716;7.016;2023-01-29T07:25:30;5.30;73.60
71837;DHT22;59686;51.716;7.016;2023-01-29T07:27:59;5.30;73.70
71837;DHT22;59686;51.716;7.016;2023-01-29T07:30:25;5.30;73.70
71837;DHT22;59686;51.716;7.016;2023-01-29T07:32:50;5.30;73.60
71837;DHT22;59686;51.716;7.016;2023-01-29T07:35:16;5.30;73.60
71837;DHT22;59686;51.716;7.016;2023-01-29T07:37:42;5.20;73.60
71837;DHT22;59686;51.716;7.016;2023-01-29T07:40:08;5.20;73.60
71837;DHT22;59686;51.716;7.016;2023-01-29T07:42:38;5.30;73.70
71837;DHT22;59686;51.716;7.016;2023-01-29T07:45:08;5.30;73.60
71837;DHT22;59686;51.716;7.016;2023-01-29T07:47:34;5.30;73.60
71837;DHT22;59686;51.716;7.016;2023-01-29T07:49:59;5.30;73.60
71837;DHT22;59686;51.716;7.016;2023-01-29T07:52:25;5.30;73.60
71837;DHT22;59686;51.716;7.016;2023-01-29T07:54:51;5.30;73.60
71837;DHT22;59686;51.716;7.016;2023-01-29T07:57:16;5.20;73.60
71837;DHT22;59686;51.716;7.016;2023-01-29T07:59:42;5.20;73.60
71837;DHT22;59686;51.716;7.016;2023-01-29T08:02:08;5.20;74.30
71837;DHT22;59686;51.716;7.016;2023-01-29T08:04:34;5.20;73.50
71837;DHT22;59686;51.716;7.016;2023-01-29T08:07:02;5.20;73.60
71837;DHT22;59686;51.716;7.016;2023-01-29T08:09:30;5.20;73.50
71837;DHT22;59686;51.716;7.016;2023-01-29T08:12:01;5.20;73.60
71837;DHT22;59686;51.716;7.016;2023-01-29T08:14:27;5.20;73.60
71837;DHT22;59686;51.716;7.016;2023-01-29T08:16:53;5.20;73.60
71837;DHT22;59686;51.716;7.016;2023-01-29T08:19:18;5.20;73.60
71837;DHT22;59686;51.716;7.016;2023-01-29T08:21:44;5.20;74.40
71837;DHT22;59686;51.716;7.016;2023-01-29T08:24:10;5.20;73.60
71837;DHT22;59686;51.716;7.016;2023-01-29T08:26:35;5.20;73.60
71837;DHT22;59686;51.716;7.016;2023-01-29T08:29:01;5.20;73.60
71837;DHT22;59686;51.716;7.016;2023-01-29T08:31:27;5.20;73.70
71837;DHT22;59686;51.716;7.016;2023-01-29T08:33:53;5.20;73.60
71837;DHT22;59686;51.716;7.016;2023-01-29T08:36:19;5.20;73.60
71837;DHT22;59686;51.716;7.016;2023-01-29T08:38:46;5.30;73.60
71837;DHT22;59686;51.716;7.016;2023-01-29T08:41:12;5.20;72.70
71837;DHT22;59686;51.716;7.016;2023-01-29T08:43:37;4.90;72.60
71837;DHT22;59686;51.716;7.016;2023-01-29T08:46:04;4.70;73.20
71837;DHT22;59686;51.716;7.016;2023-01-29T08:48:30;4.60;73.60
71837;DHT22;59686;51.716;7.016;2023-01-29T08:50:57;4.50;74.20
71837;DHT22;59686;51.716;7.016;2023-01-29T08:53:23;4.30;74.60
71837;DHT22;59686;51.716;7.016;2023-01-29T08:55:49;4.30;75.00
71837;DHT22;59686;51.716;7.016;2023-01-29T08:58:15;4.30;75.20
71837;DHT22;59686;51.716;7.016;2023-01-29T09:00:40;4.40;75.00
71837;DHT22;59686;51.716;7.016;2023-01-29T09:03:06;4.60;74.70
71837;DHT22;59686;51.716;7.016;2023-01-29T09:05:33;4.60;74.50
71837;DHT22;59686;51.716;7.016;2023-01-29T09:07:59;4.70;75.00
71837;DHT22;59686;51.716;7.016;2023-01-29T09:10:25;4.80;74.20
71837;DHT22;59686;51.716;7.016;2023-01-29T09:12:51;4.80;74.10
71837;DHT22;59686;51.716;7.016;2023-01-29T09:15:17;4.80;74.00
71837;DHT22;59686;51.716;7.016;2023-01-29T09:17:42;4.90;74.10
71837;DHT22;59686;51.716;7.016;2023-01-29T09:20:25;4.90;73.90
71837;DHT22;59686;51.716;7.016;2023-01-29T09:22:51;4.90;73.90
71837;DHT22;59686;51.716;7.016;2023-01-29T09:25:18;4.90;74.00
71837;DHT22;59686;51.716;7.016;2023-01-29T09:27:44;4.90;73.90
71837;DHT22;59686;51.716;7.016;2023-01-29T09:30:10;4.90;73.90
71837;DHT22;59686;51.716;7.016;2023-01-29T09:32:36;4.90;73.90
71837;DHT22;59686;51.716;7.016;2023-01-29T09:35:08;5.00;73.90
71837;DHT22;59686;51.716;7.016;2023-01-29T09:37:34;5.00;73.60
71837;DHT22;59686;51.716;7.016;2023-01-29T09:39:59;5.00;73.60
71837;DHT22;59686;51.716;7.016;2023-01-29T09:42:37;5.00;73.70
71837;DHT22;59686;51.716;7.016;2023-01-29T09:45:26;5.00;73.60
71837;DHT22;59686;51.716;7.016;2023-01-29T09:47:56;5.00;73.70
71837;DHT22;59686;51.716;7.016;2023-01-29T09:50:28;5.00;73.70
71837;DHT22;59686;51.716;7.016;2023-01-29T09:55:53;5.00;73.70
71837;DHT22;59686;51.716;7.016;2023-01-29T10:03:35;5.00;73.60
71837;DHT22;59686;51.716;7.016;2023-01-29T10:17:43;5.00;73.80
71837;DHT22;59686;51.716;7.016;2023-01-29T10:23:11;5.00;73.80
71837;DHT22;59686;51.716;7.016;2023-01-29T10:25:40;5.10;73.80
71837;DHT22;59686;51.716;7.016;2023-01-29T10:28:15;5.00;73.70
71837;DHT22;59686;51.716;7.016;2023-01-29T10:30:47;5.10;73.70
71837;DHT22;59686;51.716;7.016;2023-01-29T10:33:18;5.10;73.60
71837;DHT22;59686;51.716;7.016;2023-01-29T10:36:00;5.00;73.60
71837;DHT22;59686;51.716;7.016;2023-01-29T10:38:35;5.10;74.50
71837;DHT22;59686;51.716;7.016;2023-01-29T10:46:45;5.00;73.70
71837;DHT22;59686;51.716;7.016;2023-01-29T10:58:44;5.10;73.40
71837;DHT22;59686;51.716;7.016;2023-01-29T11:01:15;5.00;73.40
71837;DHT22;59686;51.716;7.016;2023-01-29T11:03:41;5.10;73.60
71837;DHT22;59686;51.716;7.016;2023-01-29T11:06:23;5.10;73.70
71837;DHT22;59686;51.716;7.016;2023-01-29T11:11:55;5.00;73.60
71837;DHT22;59686;51.716;7.016;2023-01-29T11:14:27;5.00;73.70
71837;DHT22;59686;51.716;7.016;2023-01-29T11:16:54;5.00;73.70
71837;DHT22;59686;51.716;7.016;2023-01-29T11:19:38;5.00;73.70
71837;DHT22;59686;51.716;7.016;2023-01-29T11:22:04;5.10;73.70
71837;DHT22;59686;51.716;7.016;2023-01-29T11:24:29;5.00;73.70
71837;DHT22;59686;51.716;7.016;2023-01-29T11:26:57;5.00;73.80
71837;DHT22;59686;51.716;7.016;2023-01-29T11:29:46;5.00;73.80
71837;DHT22;59686;51.716;7.016;2023-01-29T11:32:23;5.10;73.70
71837;DHT22;59686;51.716;7.016;2023-01-29T11:37:50;5.10;73.90
71837;DHT22;59686;51.716;7.016;2023-01-29T11:40:31;5.10;73.80
71837;DHT22;59686;51.716;7.016;2023-01-29T11:43:21;5.10;73.80
71837;DHT22;59686;51.716;7.016;2023-01-29T11:45:53;5.10;73.90
71837;DHT22;59686;51.716;7.016;2023-01-29T11:48:48;5.10;73.90
71837;DHT22;59686;51.716;7.016;2023-01-29T11:51:26;5.10;73.80
71837;DHT22;59686;51.716;7.016;2023-01-29T11:53:55;5.10;73.80
71837;DHT22;59686;51.716;7.016;2023-01-29T11:56:41;5.10;73.70
71837;DHT22;59686;51.716;7.016;2023-01-29T12:01:51;5.10;73.90
71837;DHT22;59686;51.716;7.016;2023-01-29T12:04:22;5.10;73.60
71837;DHT22;59686;51.716;7.016;2023-01-29T12:06:50;5.10;73.70
71837;DHT22;59686;51.716;7.016;2023-01-29T12:09:20;5.10;73.50
71837;DHT22;59686;51.716;7.016;2023-01-29T12:11:46;5.10;73.70
71837;DHT22;59686;51.716;7.016;2023-01-29T12:14:32;5.10;73.80
71837;DHT22;59686;51.716;7.016;2023-01-29T12:17:34;5.10;73.70
71837;DHT22;59686;51.716;7.016;2023-01-29T12:20:14;5.10;73.70
71837;DHT22;59686;51.716;7.016;2023-01-29T12:23:10;5.10;73.60
71837;DHT22;59686;51.716;7.016;2023-01-29T12:25:55;5.10;73.80
71837;DHT22;59686;51.716;7.016;2023-01-29T12:28:37;5.10;73.80
71837;DHT22;59686;51.716;7.016;2023-01-29T12:36:51;5.10;74.00
71837;DHT22;59686;51.716;7.016;2023-01-29T12:39:20;5.10;74.10
71837;DHT22;59686;51.716;7.016;2023-01-29T12:42:02;5.10;74.10
71837;DHT22;59686;51.716;7.016;2023-01-29T12:44:34;5.10;74.10
71837;DHT22;59686;51.716;7.016;2023-01-29T12:47:14;5.10;73.90
71837;DHT22;59686;51.716;7.016;2023-01-29T12:49:44;5.10;73.90
71837;DHT22;59686;51.716;7.016;2023-01-29T12:52:17;5.10;73.90
71837;DHT22;59686;51.716;7.016;2023-01-29T12:57:46;5.10;74.00
71837;DHT22;59686;51.716;7.016;2023-01-29T13:00:32;5.10;74.20
71837;DHT22;59686;51.716;7.016;2023-01-29T13:05:47;5.10;74.00
71837;DHT22;59686;51.716;7.016;2023-01-29T13:08:25;5.10;74.00
71837;DHT22;59686;51.716;7.016;2023-01-29T13:10:53;5.20;74.10
71837;DHT22;59686;51.716;7.016;2023-01-29T13:14:00;5.10;74.00
71837;DHT22;59686;51.716;7.016;2023-01-29T13:16:36;5.10;74.20
71837;DHT22;59686;51.716;7.016;2023-01-29T13:19:35;5.10;74.20
71837;DHT22;59686;51.716;7.016;2023-01-29T13:22:01;5.10;74.20
71837;DHT22;59686;51.716;7.016;2023-01-29T13:24:38;5.20;74.30
71837;DHT22;59686;51.716;7.016;2023-01-29T13:27:04;5.10;74.20
71837;DHT22;59686;51.716;7.016;2023-01-29T13:29:30;5.10;74.30
71837;DHT22;59686;51.716;7.016;2023-01-29T13:32:02;5.10;74.30
71837;DHT22;59686;51.716;7.016;2023-01-29T13:34:31;5.10;74.40
71837;DHT22;59686;51.716;7.016;2023-01-29T13:37:11;5.10;74.30
71837;DHT22;59686;51.716;7.016;2023-01-29T13:39:47;5.10;74.30
71837;DHT22;59686;51.716;7.016;2023-01-29T13:42:19;5.10;74.30
71837;DHT22;59686;51.716;7.016;2023-01-29T13:44:50;5.10;74.40
71837;DHT22;59686;51.716;7.016;2023-01-29T13:47:24;5.10;74.40
71837;DHT22;59686;51.716;7.016;2023-01-29T13:50:06;5.20;74.40
71837;DHT22;59686;51.716;7.016;2023-01-29T13:52:51;5.10;74.50
71837;DHT22;59686;51.716;7.016;2023-01-29T14:02:46;5.20;74.60
71837;DHT22;59686;51.716;7.016;2023-01-29T14:08:03;5.20;74.50
71837;DHT22;59686;51.716;7.016;2023-01-29T14:10:32;5.10;74.50
71837;DHT22;59686;51.716;7.016;2023-01-29T14:18:20;5.10;74.80
71837;DHT22;59686;51.716;7.016;2023-01-29T14:26:17;5.20;74.80
71837;DHT22;59686;51.716;7.016;2023-01-29T14:28:52;5.10;74.90
71837;DHT22;59686;51.716;7.016;2023-01-29T14:31:41;5.20;74.90
71837;DHT22;59686;51.716;7.016;2023-01-29T14:36:41;5.10;74.80
71837;DHT22;59686;51.716;7.016;2023-01-29T14:39:31;5.10;74.80
71837;DHT22;59686;51.716;7.016;2023-01-29T14:41:58;5.20;74.90
71837;DHT22;59686;51.716;7.016;2023-01-29T14:47:21;5.20;75.00
71837;DHT22;59686;51.716;7.016;2023-01-29T14:52:44;5.10;74.90
71837;DHT22;59686;51.716;7.016;2023-01-29T14:58:00;5.20;75.00
71837;DHT22;59686;51.716;7.016;2023-01-29T15:00:30;5.20;75.00
71837;DHT22;59686;51.716;7.016;2023-01-29T15:02:58;5.20;74.90
71837;DHT22;59686;51.716;7.016;2023-01-29T15:05:28;5.20;75.10
71837;DHT22;59686;51.716;7.016;2023-01-29T15:08:20;5.20;75.20
71837;DHT22;59686;51.716;7.016;2023-01-29T15:10:56;5.20;75.10
71837;DHT22;59686;51.716;7.016;2023-01-29T15:13:51;5.20;75.20
71837;DHT22;59686;51.716;7.016;2023-01-29T15:16:47;5.20;75.10
71837;DHT22;59686;51.716;7.016;2023-01-29T15:19:24;5.30;76.00
71837;DHT22;59686;51.716;7.016;2023-01-29T15:24:38;5.10;75.20
71837;DHT22;59686;51.716;7.016;2023-01-29T15:27:06;5.20;75.40
71837;DHT22;59686;51.716;7.016;2023-01-29T15:29:34;5.20;75.10
71837;DHT22;59686;51.716;7.016;2023-01-29T15:32:00;5.20;75.20
71837;DHT22;59686;51.716;7.016;2023-01-29T15:34:26;5.10;75.30
71837;DHT22;59686;51.716;7.016;2023-01-29T15:36:52;5.20;75.10
71837;DHT22;59686;51.716;7.016;2023-01-29T15:39:21;5.20;75.40
71837;DHT22;59686;51.716;7.016;2023-01-29T15:41:48;5.20;75.40
71837;DHT22;59686;51.716;7.016;2023-01-29T15:44:20;5.20;75.30
71837;DHT22;59686;51.716;7.016;2023-01-29T15:46:51;5.20;75.30
71837;DHT22;59686;51.716;7.016;2023-01-29T15:49:33;5.20;75.30
71837;DHT22;59686;51.716;7.016;2023-01-29T15:52:03;5.20;75.30
71837;DHT22;59686;51.716;7.016;2023-01-29T15:54:31;5.20;75.40
71837;DHT22;59686;51.716;7.016;2023-01-29T15:56:58;5.20;75.40
71837;DHT22;59686;51.716;7.016;2023-01-29T15:59:28;5.20;75.30
71837;DHT22;59686;51.716;7.016;2023-01-29T16:01:55;5.20;75.30
71837;DHT22;59686;51.716;7.016;2023-01-29T16:04:26;5.20;75.40
71837;DHT22;59686;51.716;7.016;2023-01-29T16:06:57;5.20;75.50
71837;DHT22;59686;51.716;7.016;2023-01-29T16:09:25;5.20;75.60
71837;DHT22;59686;51.716;7.016;2023-01-29T16:11:53;5.20;75.60
71837;DHT22;59686;51.716;7.016;2023-01-29T16:14:23;5.20;75.50
71837;DHT22;59686;51.716;7.016;2023-01-29T16:16:50;5.20;75.60
71837;DHT22;59686;51.716;7.016;2023-01-29T16:19:20;5.20;75.60
71837;DHT22;59686;51.716;7.016;2023-01-29T16:21:52;5.20;75.60
71837;DHT22;59686;51.716;7.016;2023-01-29T16:24:18;5.20;75.50
71837;DHT22;59686;51.716;7.016;2023-01-29T16:26:48;5.20;75.50
71837;DHT22;59686;51.716;7.016;2023-01-29T16:29:17;5.20;75.50
71837;DHT22;59686;51.716;7.016;2023-01-29T16:31:44;5.20;75.50
71837;DHT22;59686;51.716;7.016;2023-01-29T16:34:28;5.20;75.50
71837;DHT22;59686;51.716;7.016;2023-01-29T16:36:54;5.20;75.50
71837;DHT22;59686;51.716;7.016;2023-01-29T16:39:23;5.20;75.50
71837;DHT22;59686;51.716;7.016;2023-01-29T16:44:48;5.20;75.80
71837;DHT22;59686;51.716;7.016;2023-01-29T16:49:53;5.20;75.70
71837;DHT22;59686;51.716;7.016;2023-01-29T16:52:23;5.30;75.60
71837;DHT22;59686;51.716;7.016;2023-01-29T16:54:50;5.20;75.50
71837;DHT22;59686;51.716;7.016;2023-01-29T16:57:20;5.20;75.50
71837;DHT22;59686;51.716;7.016;2023-01-29T16:59:47;5.20;75.70
71837;DHT22;59686;51.716;7.016;2023-01-29T17:02:22;5.20;75.80
71837;DHT22;59686;51.716;7.016;2023-01-29T17:04:51;5.20;75.80
71837;DHT22;59686;51.716;7.016;2023-01-29T17:07:18;5.20;75.80
71837;DHT22;59686;51.716;7.016;2023-01-29T17:09:52;5.20;75.60
71837;DHT22;59686;51.716;7.016;2023-01-29T17:12:21;5.20;75.70
71837;DHT22;59686;51.716;7.016;2023-01-29T17:14:57;5.30;76.00
71837;DHT22;59686;51.716;7.016;2023-01-29T17:17:30;5.20;75.80
71837;DHT22;59686;51.716;7.016;2023-01-29T17:19:58;5.30;75.70
71837;DHT22;59686;51.716;7.016;2023-01-29T17:22:26;5.30;75.80
71837;DHT22;59686;51.716;7.016;2023-01-29T17:24:52;5.20;75.70
71837;DHT22;59686;51.716;7.016;2023-01-29T17:27:20;5.20;75.80
71837;DHT22;59686;51.716;7.016;2023-01-29T17:29:51;5.30;75.70
71837;DHT22;59686;51.716;7.016;2023-01-29T17:32:16;5.30;75.80
71837;DHT22;59686;51.716;7.016;2023-01-29T17:34:43;5.30;75.80
71837;DHT22;59686;51.716;7.016;2023-01-29T17:37:13;5.20;75.80
71837;DHT22;59686;51.716;7.016;2023-01-29T17:39:44;5.20;75.90
71837;DHT22;59686;51.716;7.016;2023-01-29T17:42:13;5.30;75.90
71837;DHT22;59686;51.716;7.016;2023-01-29T17:44:43;5.20;75.90
71837;DHT22;59686;51.716;7.016;2023-01-29T17:47:13;5.20;76.10
71837;DHT22;59686;51.716;7.016;2023-01-29T17:49:40;5.20;76.10
71837;DHT22;59686;51.716;7.016;2023-01-29T17:52:06;5.20;76.00
71837;DHT22;59686;51.716;7.016;2023-01-29T17:54:32;5.20;76.00
71837;DHT22;59686;51.716;7.016;2023-01-29T17:56:57;5.30;76.80
71837;DHT22;59686;51.716;7.016;2023-01-29T17:59:26;5.20;76.00
71837;DHT22;59686;51.716;7.016;2023-01-29T18:01:52;5.40;76.30
71837;DHT22;59686;51.716;7.016;2023-01-29T18:04:18;5.30;76.20
71837;DHT22;59686;51.716;7.016;2023-01-29T18:06:46;5.30;76.10
71837;DHT22;59686;51.716;7.016;2023-01-29T18:09:14;5.30;76.10
71837;DHT22;59686;51.716;7.016;2023-01-29T18:11:43;5.30;76.30
71837;DHT22;59686;51.716;7.016;2023-01-29T18:14:09;5.20;77.00
71837;DHT22;59686;51.716;7.016;2023-01-29T18:16:37;5.30;76.30
71837;DHT22;59686;51.716;7.016;2023-01-29T18:19:20;5.20;76.40
71837;DHT22;59686;51.716;7.016;2023-01-29T18:21:46;5.20;76.40
71837;DHT22;59686;51.716;7.016;2023-01-29T18:24:12;5.20;76.30
71837;DHT22;59686;51.716;7.016;2023-01-29T18:26:37;5.30;76.40
71837;DHT22;59686;51.716;7.016;2023-01-29T18:29:04;5.30;76.60
71837;DHT22;59686;51.716;7.016;2023-01-29T18:31:30;5.30;76.70
71837;DHT22;59686;51.716;7.016;2023-01-29T18:33:55;5.30;76.70
71837;DHT22;59686;51.716;7.016;2023-01-29T18:36:21;5.30;76.80
71837;DHT22;59686;51.716;7.016;2023-01-29T18:38:47;5.20;77.10